Time;durP1;ratioP1;P1;durP2;ratioP2;P2;SDS_P1;SDS_P2;PMS_P1;PMS_P2;Temp;Humidity;BMP_temperature;BMP_pressure;BME280_temperature;BME280_humidity;BME280_pressure;Samples;Min_cycle;Max_cycle;Signal;HPM_P1;HPM_P2
2021/05/02 00:00:07;;;;;;;11.00;7.68;;;;;;;9.90;53.10;100063.88;5073983;28;20059;-74
2021/05/02 00:02:35;;;;;;;9.63;8.05;;;;;;;9.85;53.16;100047.31;5073477;28;20389;-74
2021/05/02 00:05:02;;;;;;;8.85;7.47;;;;;;;9.80;53.59;100053.84;5073312;28;20044;-75
2021/05/02 00:07:30;;;;;;;10.77;8.38;;;;;;;9.75;53.79;100052.03;5073544;28;20496;-74
2021/05/02 00:09:57;;;;;;;8.90;7.70;;;;;;;9.70;53.76;100057.72;5073820;28;20056;-74
2021/05/02 00:12:24;;;;;;;11.00;8.18;;;;;;;9.67;54.14;100060.31;5073578;28;20057;-74
2021/05/02 00:14:51;;;;;;;8.90;8.00;;;;;;;9.64;53.80;100053.44;5072362;28;20052;-74
2021/05/02 00:17:18;;;;;;;10.48;8.57;;;;;;;9.61;54.36;100058.81;5073125;28;20071;-74
2021/05/02 00:19:46;;;;;;;10.80;8.35;;;;;;;9.59;54.35;100066.66;5073374;28;20063;-74
2021/05/02 00:22:16;;;;;;;9.98;8.30;;;;;;;9.54;54.50;100062.88;5073211;28;20389;-74
2021/05/02 00:24:43;;;;;;;10.02;8.02;;;;;;;9.51;55.23;100065.44;5073794;28;20055;-74
2021/05/02 00:27:11;;;;;;;11.35;8.35;;;;;;;9.50;55.11;100072.16;5073279;28;20048;-74
2021/05/02 00:29:40;;;;;;;9.27;7.80;;;;;;;9.49;55.49;100073.28;5073050;28;20052;-74
2021/05/02 00:32:09;;;;;;;10.05;7.88;;;;;;;9.49;54.97;100074.13;5073075;28;20064;-74
2021/05/02 00:34:36;;;;;;;13.13;8.68;;;;;;;9.53;54.96;100071.50;5073150;28;20052;-75
2021/05/02 00:37:04;;;;;;;9.73;8.70;;;;;;;9.54;55.47;100074.00;5073485;28;20061;-74
2021/05/02 00:39:31;;;;;;;10.95;8.85;;;;;;;9.55;55.54;100069.25;5073362;28;20051;-74
2021/05/02 00:42:01;;;;;;;10.70;8.10;;;;;;;9.55;55.35;100072.88;5072634;28;20144;-74
2021/05/02 00:44:32;;;;;;;9.15;8.25;;;;;;;9.57;55.03;100080.06;5072690;28;20056;-74
2021/05/02 00:47:15;;;;;;;11.07;9.52;;;;;;;9.57;55.59;100080.06;5073213;28;20052;-74
2021/05/02 00:49:48;;;;;;;11.38;9.15;;;;;;;9.57;54.98;100080.88;5073914;28;20055;-74
2021/05/02 00:52:20;;;;;;;11.00;9.45;;;;;;;9.59;55.51;100081.38;5073997;28;20489;-75
2021/05/02 00:55:02;;;;;;;12.43;9.57;;;;;;;9.64;55.23;100074.84;5073151;28;20056;-75
2021/05/02 00:57:32;;;;;;;13.80;10.20;;;;;;;9.63;55.67;100078.78;5073538;28;20053;-75
2021/05/02 01:00:01;;;;;;;;;;;;;;;9.62;55.52;100082.72;5074380;28;20049;-74
2021/05/02 01:02:30;;;;;;;11.48;9.50;;;;;;;9.54;55.69;100076.78;5074334;28;19920;-74
2021/05/02 01:04:58;;;;;;;13.70;10.70;;;;;;;9.49;56.25;100084.41;5072882;28;20044;-74
2021/05/02 01:07:34;;;;;;;13.43;10.38;;;;;;;9.45;56.54;100078.69;5073150;28;20048;-75
2021/05/02 01:10:05;;;;;;;15.32;12.07;;;;;;;9.40;56.22;100086.31;5065855;28;20502;-75
2021/05/02 01:12:37;;;;;;;12.82;10.82;;;;;;;9.32;56.78;100085.09;5072389;28;20055;-74
2021/05/02 01:15:10;;;;;;;12.50;10.55;;;;;;;9.25;56.80;100085.56;5073172;28;20048;-75
2021/05/02 01:17:42;;;;;;;14.50;11.43;;;;;;;9.20;57.20;100090.41;5072907;28;20049;-74
2021/05/02 01:20:15;;;;;;;14.82;11.65;;;;;;;9.19;58.27;100097.09;5072706;28;20056;-75
2021/05/02 01:22:43;;;;;;;14.15;11.27;;;;;;;9.22;58.37;100096.47;5072589;28;20053;-75
2021/05/02 01:25:13;;;;;;;14.02;11.50;;;;;;;9.25;59.08;100099.44;5072191;28;20055;-74
2021/05/02 01:27:40;;;;;;;13.75;11.02;;;;;;;9.30;58.61;100098.50;5073008;28;20431;-74
2021/05/02 01:30:11;;;;;;;16.38;11.52;;;;;;;9.35;58.71;100099.19;5072967;28;20045;-74
2021/05/02 01:32:39;;;;;;;17.23;12.95;;;;;;;9.38;59.39;100092.19;5072602;28;20398;-74
2021/05/02 01:35:07;;;;;;;14.07;11.82;;;;;;;9.46;58.40;100090.63;5076342;28;20049;-75
2021/05/02 01:37:34;;;;;;;16.92;13.27;;;;;;;9.46;58.80;100090.63;5076108;28;20349;-74
2021/05/02 01:40:05;;;;;;;15.95;13.63;;;;;;;9.48;58.96;100091.94;5076350;28;20398;-74
2021/05/02 01:42:33;;;;;;;19.33;12.95;;;;;;;9.56;59.21;100104.25;5076265;28;20048;-74
2021/05/02 01:45:01;;;;;;;15.57;12.88;;;;;;;9.61;58.82;100095.78;5074361;28;20056;-74
2021/05/02 01:47:28;;;;;;;16.35;13.02;;;;;;;9.65;58.43;100090.41;5075834;28;20497;-74
2021/05/02 01:50:01;;;;;;;15.13;12.50;;;;;;;9.67;59.16;100091.72;5076217;28;20053;-74
2021/05/02 01:52:30;;;;;;;16.00;13.32;;;;;;;9.67;59.25;100088.94;5076318;28;20052;-75
2021/05/02 01:54:59;;;;;;;17.87;12.90;;;;;;;9.68;58.66;100089.75;5076345;28;20055;-74
2021/05/02 01:57:28;;;;;;;18.45;13.95;;;;;;;9.70;58.85;100095.81;5076045;28;20059;-74
2021/05/02 01:59:58;;;;;;;;;;;;;;;9.71;59.00;100086.34;5076350;28;20052;-74
2021/05/02 02:02:27;;;;;;;16.45;13.52;;;;;;;9.70;59.10;100095.81;5074984;28;19932;-74
2021/05/02 02:04:57;;;;;;;17.67;14.38;;;;;;;9.69;59.12;100089.44;5076147;28;20055;-75
2021/05/02 02:07:24;;;;;;;18.55;14.25;;;;;;;9.71;59.14;100103.84;5075809;28;20052;-74
2021/05/02 02:09:52;;;;;;;18.10;14.15;;;;;;;9.71;59.21;100094.69;5075803;28;20401;-74
2021/05/02 02:12:19;;;;;;;16.98;14.35;;;;;;;9.68;59.59;100101.72;5075708;28;20394;-75
2021/05/02 02:14:49;;;;;;;18.67;14.10;;;;;;;9.70;59.48;100098.59;5075994;28;20057;-74
2021/05/02 02:17:18;;;;;;;16.95;13.60;;;;;;;9.72;59.11;100099.97;5074946;28;20064;-74
2021/05/02 02:19:46;;;;;;;16.93;14.57;;;;;;;9.72;59.28;100099.97;5075538;28;20053;-74
2021/05/02 02:22:15;;;;;;;16.25;12.75;;;;;;;9.72;58.91;100104.69;5075846;28;20963;-74
2021/05/02 02:24:45;;;;;;;15.55;12.65;;;;;;;9.74;59.12;100108.81;5075316;28;20052;-74
2021/05/02 02:27:15;;;;;;;16.95;12.27;;;;;;;9.72;59.36;100101.91;5076478;28;20397;-75
2021/05/02 02:29:45;;;;;;;15.60;12.57;;;;;;;9.73;59.42;100115.50;5076762;28;20063;-75
2021/05/02 02:32:15;;;;;;;14.98;11.25;;;;;;;9.67;58.99;100108.41;5076449;28;20048;-74
2021/05/02 02:34:48;;;;;;;13.85;11.48;;;;;;;9.62;59.31;100114.13;5075978;28;20063;-74
2021/05/02 02:37:17;;;;;;;13.50;11.95;;;;;;;9.62;59.72;100111.34;5076134;28;20401;-74
2021/05/02 02:39:52;;;;;;;15.37;11.13;;;;;;;9.60;59.09;100110.84;5075172;28;20056;-75
2021/05/02 02:42:24;;;;;;;13.43;11.75;;;;;;;9.56;59.37;100107.03;5075776;28;20053;-75
2021/05/02 02:44:54;;;;;;;14.20;11.25;;;;;;;9.54;58.91;100114.88;5074829;28;20057;-75
2021/05/02 02:47:25;;;;;;;14.35;11.43;;;;;;;9.52;59.34;100114.38;5075455;28;20056;-75
2021/05/02 02:49:57;;;;;;;12.27;10.80;;;;;;;9.50;59.14;100120.25;5075254;28;20055;-75
2021/05/02 02:52:26;;;;;;;12.63;10.23;;;;;;;9.47;59.39;100123.66;5075964;28;20057;-75
2021/05/02 02:55:01;;;;;;;13.13;10.95;;;;;;;9.45;59.14;100128.72;5075209;28;20059;-75
2021/05/02 02:57:31;;;;;;;12.65;10.57;;;;;;;9.39;59.33;100132.75;5075367;28;20048;-75
2021/05/02 03:00:02;;;;;;;12.40;9.95;;;;;;;9.45;59.74;100133.44;5075862;28;20567;-75
2021/05/02 03:02:31;;;;;;;13.43;10.70;;;;;;;9.46;59.11;100133.13;5074930;28;20067;-75
2021/05/02 03:05:03;;;;;;;11.95;9.70;;;;;;;9.51;59.06;100137.75;5075229;28;20064;-75
2021/05/02 03:07:32;;;;;;;12.63;10.27;;;;;;;9.51;59.03;100130.25;5075053;28;20055;-75
2021/05/02 03:10:00;;;;;;;11.05;9.77;;;;;;;9.52;58.77;100133.84;5075174;28;20056;-75
2021/05/02 03:12:30;;;;;;;13.10;9.43;;;;;;;9.53;58.66;100141.03;5074813;28;20053;-74
2021/05/02 03:14:57;;;;;;;11.80;9.80;;;;;;;9.55;58.76;100135.97;5074583;28;20052;-75
2021/05/02 03:17:30;;;;;;;11.93;9.55;;;;;;;9.55;58.66;100144.31;5074637;28;20053;-75
2021/05/02 03:20:05;;;;;;;11.57;9.80;;;;;;;9.55;58.44;100147.09;5073900;28;20048;-75
2021/05/02 03:22:41;;;;;;;11.82;10.13;;;;;;;9.52;58.17;100143.00;5074483;28;20052;-75
2021/05/02 03:25:12;;;;;;;12.48;10.10;;;;;;;9.50;58.62;100147.22;5074015;28;20048;-75
2021/05/02 03:27:47;;;;;;;12.50;9.95;;;;;;;9.49;58.38;100151.97;5074389;28;20059;-75
2021/05/02 03:30:15;;;;;;;12.60;9.20;;;;;;;9.47;58.28;100150.63;5074069;28;20055;-75
2021/05/02 03:32:48;;;;;;;10.48;8.90;;;;;;;9.46;57.78;100151.78;5074513;28;20462;-75
2021/05/02 03:35:18;;;;;;;10.82;8.45;;;;;;;9.44;58.26;100154.03;5074640;28;20072;-75
2021/05/02 03:37:52;;;;;;;10.10;8.50;;;;;;;9.44;58.42;100151.25;5073779;28;20048;-75
2021/05/02 03:40:19;;;;;;;10.57;7.53;;;;;;;9.37;57.82;100160.03;5073597;28;20049;-75
2021/05/02 03:42:46;;;;;;;11.43;8.25;;;;;;;9.38;58.39;100161.69;5073724;28;20059;-75
2021/05/02 03:45:14;;;;;;;8.90;7.10;;;;;;;9.38;58.63;100164.44;5074130;28;20075;-75
2021/05/02 03:47:40;;;;;;;11.20;7.65;;;;;;;9.39;58.53;100165.31;5073990;28;20052;-75
2021/05/02 03:50:08;;;;;;;11.05;7.32;;;;;;;9.37;58.43;100170.34;5074122;28;20051;-75
2021/05/02 03:52:36;;;;;;;10.75;6.88;;;;;;;9.37;58.58;100178.69;5074158;28;20056;-75
2021/05/02 03:55:05;;;;;;;8.68;6.95;;;;;;;9.33;58.57;100172.94;5073661;28;20052;-75
2021/05/02 03:57:32;;;;;;;11.40;7.50;;;;;;;9.33;58.31;100184.84;5073282;28;20052;-75
2021/05/02 03:59:59;;;;;;;8.93;6.32;;;;;;;9.28;58.34;100176.66;5073882;28;20056;-75
2021/05/02 04:02:26;;;;;;;7.88;5.88;;;;;;;9.28;58.38;100184.16;5073893;28;20504;-75
2021/05/02 04:04:52;;;;;;;8.43;6.15;;;;;;;9.31;58.03;100181.56;5073489;28;20053;-75
2021/05/02 04:07:19;;;;;;;9.48;6.82;;;;;;;9.30;58.63;100181.88;5073224;28;20512;-75
2021/05/02 04:09:49;;;;;;;9.57;6.45;;;;;;;9.31;58.75;100184.34;5073407;28;20052;-74
2021/05/02 04:12:16;;;;;;;8.95;6.72;;;;;;;9.34;57.99;100186.53;5073831;28;20063;-74
2021/05/02 04:14:43;;;;;;;10.38;7.53;;;;;;;9.32;58.30;100187.94;5073543;28;20044;-74
2021/05/02 04:17:14;;;;;;;8.27;6.22;;;;;;;9.30;58.11;100188.28;5073636;28;20075;-75
2021/05/02 04:19:43;;;;;;;10.23;6.35;;;;;;;9.29;58.14;100180.25;5073613;28;20048;-74
2021/05/02 04:22:12;;;;;;;7.65;6.03;;;;;;;9.28;58.02;100201.66;5073542;28;20071;-75
2021/05/02 04:24:39;;;;;;;10.10;6.13;;;;;;;9.26;57.91;100200.31;5073009;28;20055;-75
2021/05/02 04:27:07;;;;;;;8.98;6.72;;;;;;;9.29;58.16;100208.03;5072598;28;20469;-75
2021/05/02 04:29:35;;;;;;;8.40;6.72;;;;;;;9.28;58.44;100206.38;5073336;28;20493;-75
2021/05/02 04:32:04;;;;;;;7.88;6.30;;;;;;;9.29;58.28;100210.81;5073773;28;20170;-75
2021/05/02 04:34:31;;;;;;;8.20;6.05;;;;;;;9.27;57.51;100213.91;5073206;28;20048;-75
2021/05/02 04:36:58;;;;;;;8.57;6.03;;;;;;;9.27;57.71;100208.34;5073731;28;20053;-75
2021/05/02 04:39:28;;;;;;;9.40;6.90;;;;;;;9.29;58.25;100219.97;5074210;28;20063;-75
2021/05/02 04:41:55;;;;;;;9.38;6.13;;;;;;;9.30;58.27;100221.63;5073726;28;20500;-75
2021/05/02 04:44:26;;;;;;;9.35;6.75;;;;;;;9.31;57.80;100223.25;5073515;28;20053;-75
2021/05/02 04:46:53;;;;;;;9.75;7.50;;;;;;;9.28;58.16;100218.34;5073815;28;20052;-75
2021/05/02 04:49:22;;;;;;;8.48;6.65;;;;;;;9.31;58.35;100214.09;5073429;28;20048;-75
2021/05/02 04:51:49;;;;;;;10.13;7.03;;;;;;;9.35;58.14;100229.84;5074260;28;20056;-75
2021/05/02 04:54:16;;;;;;;10.05;7.85;;;;;;;9.37;58.15;100221.19;5074147;28;20493;-75
2021/05/02 04:56:43;;;;;;;11.32;7.85;;;;;;;9.39;58.03;100224.50;5073138;28;20048;-75
2021/05/02 04:59:13;;;;;;;10.60;8.25;;;;;;;9.41;57.72;100224.16;5073981;28;20063;-74
2021/05/02 05:01:42;;;;;;;10.90;8.57;;;;;;;9.44;58.04;100227.13;5073555;28;20056;-74
2021/05/02 05:04:09;;;;;;;11.65;8.40;;;;;;;9.47;57.67;100232.09;5073869;28;20489;-75
2021/05/02 05:06:36;;;;;;;10.88;8.38;;;;;;;9.49;58.37;100229.81;5073601;28;20053;-75
2021/05/02 05:09:05;;;;;;;10.18;8.15;;;;;;;9.55;57.47;100230.50;5076177;28;20052;-75
2021/05/02 05:11:33;;;;;;;12.63;8.68;;;;;;;9.56;57.07;100234.94;5057288;28;20389;-75
2021/05/02 05:14:00;;;;;;;12.55;9.48;;;;;;;9.56;57.25;100240.50;5057015;28;20072;-75
2021/05/02 05:16:28;;;;;;;15.23;9.88;;;;;;;9.56;57.28;100243.28;5056900;28;20060;-75
2021/05/02 05:18:56;;;;;;;10.75;8.88;;;;;;;9.59;57.88;100242.66;5056785;28;20052;-75
2021/05/02 05:21:23;;;;;;;11.40;9.45;;;;;;;9.62;57.43;100246.78;5057761;28;20056;-75
2021/05/02 05:23:50;;;;;;;13.23;9.90;;;;;;;9.60;57.93;100258.22;5062602;28;20048;-75
2021/05/02 05:26:19;;;;;;;16.30;10.63;;;;;;;9.57;57.95;100256.03;5077073;28;20052;-75
2021/05/02 05:28:45;;;;;;;15.25;11.55;;;;;;;9.60;57.23;100262.97;5077300;28;20052;-75
2021/05/02 05:31:12;;;;;;;14.18;11.23;;;;;;;9.59;57.57;100264.88;5077063;28;20048;-75
2021/05/02 05:33:39;;;;;;;15.82;12.05;;;;;;;9.57;57.43;100261.59;5076898;28;20470;-75
2021/05/02 05:36:07;;;;;;;15.60;12.38;;;;;;;9.57;57.38;100267.16;5077993;28;20053;-75
2021/05/02 05:38:34;;;;;;;15.68;13.57;;;;;;;9.59;57.30;100270.44;5077507;28;20485;-75
2021/05/02 05:41:01;;;;;;;17.52;13.88;;;;;;;9.57;57.12;100278.28;5076885;28;20052;-75
2021/05/02 05:43:28;;;;;;;19.15;14.25;;;;;;;9.55;57.02;100275.84;5077304;28;20579;-75
2021/05/02 05:45:54;;;;;;;18.90;14.38;;;;;;;9.51;57.76;100272.03;5077023;28;20060;-75
2021/05/02 05:48:21;;;;;;;17.13;13.52;;;;;;;9.46;57.44;100269.34;5076921;28;20060;-75
2021/05/02 05:50:49;;;;;;;19.58;14.65;;;;;;;9.46;57.97;100279.66;5077253;28;20068;-75
2021/05/02 05:53:17;;;;;;;17.33;14.10;;;;;;;9.48;57.77;100269.06;5076667;28;20052;-75
2021/05/02 05:55:44;;;;;;;17.55;13.98;;;;;;;9.48;58.07;100283.75;5076094;28;20067;-75
2021/05/02 05:58:11;;;;;;;15.75;13.45;;;;;;;9.46;57.82;100285.22;5076320;28;20048;-74
2021/05/02 06:00:38;;;;;;;18.05;13.25;;;;;;;9.47;58.19;100284.06;5076700;28;20053;-75
2021/05/02 06:03:05;;;;;;;15.25;11.75;;;;;;;9.48;58.04;100289.31;5075387;28;20052;-74
2021/05/02 06:05:32;;;;;;;17.55;11.80;;;;;;;9.47;57.95;100293.25;5075194;28;20044;-75
2021/05/02 06:07:59;;;;;;;12.32;10.52;;;;;;;9.47;57.93;100282.13;5075262;28;20053;-75
2021/05/02 06:10:27;;;;;;;14.35;10.68;;;;;;;9.45;58.25;100291.91;5074518;28;20079;-75
2021/05/02 06:12:54;;;;;;;13.07;10.13;;;;;;;9.49;58.57;100284.56;5076118;28;20071;-75
2021/05/02 06:15:21;;;;;;;13.18;9.30;;;;;;;9.53;58.41;100293.94;5075800;28;20048;-75
2021/05/02 06:17:48;;;;;;;9.30;7.82;;;;;;;9.52;57.05;100293.13;5076245;28;20397;-75
2021/05/02 06:20:15;;;;;;;11.20;7.72;;;;;;;9.52;57.14;100295.09;5075523;28;20072;-75
2021/05/02 06:22:43;;;;;;;10.75;8.07;;;;;;;9.59;57.20;100289.09;5075815;28;20053;-75
2021/05/02 06:25:11;;;;;;;10.93;7.70;;;;;;;9.59;56.83;100295.47;5075741;28;20055;-75
2021/05/02 06:27:41;;;;;;;13.82;7.88;;;;;;;9.62;56.99;100300.44;5076611;28;20135;-75
2021/05/02 06:30:09;;;;;;;8.63;6.30;;;;;;;9.63;56.73;100290.94;5076538;28;20053;-75
2021/05/02 06:32:37;;;;;;;11.18;7.78;;;;;;;9.68;57.40;100299.19;5075920;28;20059;-75
2021/05/02 06:35:06;;;;;;;11.73;7.65;;;;;;;9.73;57.07;100303.81;5075669;28;20052;-75
2021/05/02 06:37:33;;;;;;;9.25;7.32;;;;;;;9.85;56.71;100306.03;5075861;28;20045;-75
2021/05/02 06:40:00;;;;;;;9.20;6.97;;;;;;;9.96;55.59;100294.34;5075379;28;20048;-75
2021/05/02 06:42:27;;;;;;;9.65;6.90;;;;;;;10.05;55.96;100299.97;5075365;28;20053;-75
2021/05/02 06:44:55;;;;;;;8.93;7.22;;;;;;;10.16;55.29;100303.34;5075289;28;20049;-75
2021/05/02 06:47:22;;;;;;;13.38;8.18;;;;;;;10.15;55.46;100304.47;5075184;28;20048;-75
2021/05/02 06:49:49;;;;;;;10.68;7.22;;;;;;;10.12;55.44;100299.53;5075374;28;20075;-75
2021/05/02 06:52:16;;;;;;;9.13;6.78;;;;;;;10.15;56.20;100307.28;5075203;28;20056;-75
2021/05/02 06:54:43;;;;;;;8.27;6.10;;;;;;;10.14;55.80;100312.03;5075291;28;20044;-75
2021/05/02 06:57:10;;;;;;;8.73;6.53;;;;;;;10.16;56.92;100314.47;5075149;28;20478;-75
2021/05/02 06:59:37;;;;;;;8.07;6.15;;;;;;;10.16;55.82;100306.97;5075140;28;20052;-75
2021/05/02 07:02:05;;;;;;;10.07;6.10;;;;;;;10.18;55.46;100311.38;5075273;28;20386;-75
2021/05/02 07:04:34;;;;;;;9.30;5.63;;;;;;;10.15;56.06;100315.63;5075391;28;20052;-75
2021/05/02 07:07:01;;;;;;;10.55;5.80;;;;;;;10.21;55.97;100317.13;5075192;28;20048;-75
2021/05/02 07:09:28;;;;;;;7.10;4.78;;;;;;;10.20;55.63;100314.66;5074174;28;20433;-75
2021/05/02 07:11:55;;;;;;;9.07;4.82;;;;;;;10.26;54.61;100325.34;5074900;28;20056;-75
2021/05/02 07:14:22;;;;;;;5.93;4.68;;;;;;;10.46;55.07;100312.94;5076236;28;20059;-75
2021/05/02 07:16:49;;;;;;;8.90;5.05;;;;;;;10.60;53.49;100326.75;5075298;28;20051;-75
2021/05/02 07:19:17;;;;;;;7.88;4.38;;;;;;;10.73;53.75;100322.25;5074324;28;20055;-75
2021/05/02 07:21:45;;;;;;;5.70;4.33;;;;;;;11.02;53.40;100320.91;5075906;28;20075;-75
2021/05/02 07:24:15;;;;;;;8.20;3.80;;;;;;;11.41;52.14;100330.44;5074732;28;20612;-75
2021/05/02 07:26:42;;;;;;;6.10;3.90;;;;;;;11.75;50.56;100330.50;5075356;28;20378;-75
2021/05/02 07:29:08;;;;;;;8.18;3.75;;;;;;;12.00;49.55;100328.09;5074715;28;20297;-75
2021/05/02 07:31:35;;;;;;;4.15;2.95;;;;;;;12.21;48.23;100331.06;5074668;28;20489;-75
2021/05/02 07:34:02;;;;;;;5.30;2.50;;;;;;;12.37;46.87;100331.38;5074711;28;20078;-75
2021/05/02 07:36:30;;;;;;;5.10;2.80;;;;;;;12.50;47.08;100322.00;5074860;28;20056;-75
2021/05/02 07:38:57;;;;;;;6.97;2.80;;;;;;;12.63;47.00;100330.53;5074381;28;20048;-75
2021/05/02 07:41:25;;;;;;;5.68;3.15;;;;;;;12.87;45.14;100332.75;5073534;28;20055;-75
2021/05/02 07:43:52;;;;;;;6.93;2.85;;;;;;;14.51;40.85;100330.13;5073899;28;20067;-75
2021/05/02 07:46:19;;;;;;;6.05;2.78;;;;;;;16.27;38.65;100329.50;5074542;28;20057;-75
2021/05/02 07:48:46;;;;;;;7.13;3.13;;;;;;;16.71;35.41;100329.53;5074475;28;20151;-75
2021/05/02 07:51:13;;;;;;;4.30;2.30;;;;;;;16.51;36.13;100335.03;5073961;28;20060;-75
2021/05/02 07:53:41;;;;;;;7.05;2.33;;;;;;;16.23;36.34;100335.84;5074350;28;20465;-76
2021/05/02 07:56:08;;;;;;;5.25;2.70;;;;;;;16.47;35.74;100327.66;5074114;28;20477;-75
2021/05/02 07:58:35;;;;;;;6.20;2.20;;;;;;;16.42;35.53;100323.09;5073202;28;20044;-75
2021/05/02 08:01:02;;;;;;;3.60;2.20;;;;;;;16.36;34.54;100330.19;5059731;28;20056;-75
2021/05/02 08:03:29;;;;;;;4.18;2.03;;;;;;;16.32;34.27;100329.25;5054520;28;20049;-75
2021/05/02 08:05:57;;;;;;;6.00;2.45;;;;;;;17.08;33.48;100324.53;5054450;28;20073;-76
2021/05/02 08:08:24;;;;;;;3.88;2.13;;;;;;;17.49;31.94;100332.78;5072278;28;20044;-73
2021/05/02 08:10:53;;;;;;;2.78;1.58;;;;;;;17.30;32.05;100336.34;5055741;28;20057;-76
2021/05/02 08:13:20;;;;;;;5.93;2.00;;;;;;;16.95;32.35;100342.69;5073812;28;20063;-75
2021/05/02 08:15:48;;;;;;;4.22;1.90;;;;;;;16.61;33.25;100340.13;5074021;28;20052;-75
2021/05/02 08:18:15;;;;;;;5.47;2.08;;;;;;;16.38;32.99;100341.88;5074285;28;20052;-76
2021/05/02 08:20:42;;;;;;;6.90;2.25;;;;;;;16.48;33.02;100346.97;5074308;28;20056;-77
2021/05/02 08:23:10;;;;;;;5.70;1.92;;;;;;;17.01;32.05;100339.25;5073804;28;20398;-75
2021/05/02 08:25:37;;;;;;;3.55;1.95;;;;;;;17.10;31.39;100344.69;5073825;28;20462;-74
2021/05/02 08:28:05;;;;;;;3.25;2.17;;;;;;;17.79;29.71;100356.47;5073762;28;20044;-74
2021/05/02 08:30:32;;;;;;;4.80;2.20;;;;;;;17.47;30.13;100350.06;5073665;28;20048;-74
2021/05/02 08:32:59;;;;;;;5.53;2.53;;;;;;;18.78;28.85;100349.75;5074172;28;20504;-74
2021/05/02 08:35:26;;;;;;;3.63;1.50;;;;;;;18.50;28.05;100344.34;5073369;28;20063;-74
2021/05/02 08:37:53;;;;;;;5.32;2.65;;;;;;;19.51;26.99;100344.19;5073502;28;20055;-74
2021/05/02 08:40:22;;;;;;;3.80;1.92;;;;;;;20.00;25.29;100349.03;5072881;28;20053;-74
2021/05/02 08:42:51;;;;;;;4.28;1.60;;;;;;;20.09;25.81;100352.41;5072513;28;20056;-74
2021/05/02 08:45:22;;;;;;;4.38;1.83;;;;;;;19.18;27.04;100363.44;5065765;28;20056;-74
2021/05/02 08:47:54;;;;;;;4.65;1.95;;;;;;;18.34;27.89;100362.16;5073345;28;20052;-75
2021/05/02 08:50:21;;;;;;;6.72;2.05;;;;;;;18.43;28.07;100364.75;5073475;28;20056;-75
2021/05/02 08:52:49;;;;;;;4.68;1.80;;;;;;;17.97;28.24;100365.34;5073610;28;20429;-76
2021/05/02 08:55:16;;;;;;;3.22;1.55;;;;;;;17.70;28.52;100358.69;5073460;28;20059;-75
2021/05/02 08:57:43;;;;;;;2.92;1.70;;;;;;;17.80;28.51;100358.09;5074274;28;20060;-75
2021/05/02 09:00:10;;;;;;;4.88;2.50;;;;;;;19.11;26.79;100356.81;5073221;28;20355;-76
2021/05/02 09:02:38;;;;;;;3.22;2.25;;;;;;;19.84;25.90;100358.50;5073556;28;20060;-76
2021/05/02 09:05:07;;;;;;;5.95;1.85;;;;;;;19.89;25.79;100357.38;5073357;28;20068;-76
2021/05/02 09:07:42;;;;;;;3.95;2.17;;;;;;;19.11;26.83;100359.66;5073373;28;20049;-76
2021/05/02 09:10:10;;;;;;;5.40;1.90;;;;;;;18.56;26.91;100368.25;5073268;28;20457;-76
2021/05/02 09:12:40;;;;;;;3.45;2.13;;;;;;;21.61;24.04;100362.25;5073373;28;20362;-76
2021/05/02 09:15:08;;;;;;;;;;;;;;;24.05;20.84;100345.16;5072926;28;20056;-75
2021/05/02 09:17:51;;;;;;;2.67;2.05;;;;;;;26.62;18.24;100340.88;5072875;28;19924;-76
2021/05/02 09:20:43;;;;;;;4.07;1.70;;;;;;;27.56;16.49;100346.03;5052709;28;20367;-76
2021/05/02 09:23:11;;;;;;;4.03;1.77;;;;;;;25.46;17.87;100346.91;5052959;28;20060;-76
2021/05/02 09:25:49;;;;;;;4.03;2.22;;;;;;;24.79;17.82;100348.97;5074177;28;20389;-78
2021/05/02 09:28:17;;;;;;;5.18;2.30;;;;;;;27.27;15.66;100349.34;5082046;28;20075;-79
2021/05/02 09:30:44;;;;;;;5.30;2.15;;;;;;;28.99;14.31;100337.50;5072662;28;20052;-74
2021/05/02 09:33:26;;;;;;;3.22;1.58;;;;;;;28.92;14.74;100335.59;5072053;28;20059;-74
2021/05/02 09:35:53;;;;;;;2.92;1.65;;;;;;;27.25;15.45;100346.91;5072563;28;20060;-75
2021/05/02 09:38:20;;;;;;;3.42;1.58;;;;;;;25.89;16.66;100351.44;5071642;28;21529;-76
2021/05/02 09:40:49;;;;;;;4.50;1.95;;;;;;;24.41;17.69;100345.06;5072449;28;20060;-76
2021/05/02 09:43:36;;;;;;;2.45;1.50;;;;;;;22.70;19.38;100356.00;5072459;28;20060;-75
2021/05/02 09:46:23;;;;;;;3.92;1.45;;;;;;;21.41;21.53;100370.13;5072164;28;20056;-75
2021/05/02 09:49:02;;;;;;;4.05;2.05;;;;;;;20.35;23.17;100374.19;5071802;28;20063;-75
2021/05/02 09:51:30;;;;;;;5.18;2.35;;;;;;;19.34;24.66;100379.44;5071931;28;20067;-75
2021/05/02 09:54:10;;;;;;;7.05;2.30;;;;;;;18.40;26.10;100379.59;5070868;28;20048;-75
2021/05/02 09:56:42;;;;;;;4.32;2.75;;;;;;;17.80;27.07;100377.81;5075009;28;20053;-75
2021/05/02 09:59:36;;;;;;;4.53;1.98;;;;;;;17.42;28.40;100382.09;5074770;28;20057;-74
2021/05/02 10:02:20;;;;;;;4.03;2.28;;;;;;;17.52;27.98;100385.59;5074836;28;20404;-75
2021/05/02 10:04:52;;;;;;;4.80;2.40;;;;;;;17.10;28.60;100392.53;5073194;28;20403;-74
2021/05/02 10:07:21;;;;;;;4.72;1.85;;;;;;;16.63;29.57;100384.75;5073305;28;20052;-74
2021/05/02 10:09:49;;;;;;;5.72;1.75;;;;;;;15.95;31.49;100391.97;5069620;28;20064;-75
2021/05/02 10:12:16;;;;;;;4.15;2.20;;;;;;;15.51;33.05;100399.31;5075427;28;20057;-74
2021/05/02 10:14:47;;;;;;;4.95;2.30;;;;;;;15.12;33.99;100401.56;5075509;28;20098;-74
2021/05/02 10:17:14;;;;;;;2.63;1.92;;;;;;;14.82;34.45;100410.13;5077782;28;20060;-74
2021/05/02 10:19:42;;;;;;;5.40;2.15;;;;;;;14.68;34.56;100409.59;5074568;28;20079;-75
2021/05/02 10:22:11;;;;;;;3.47;1.95;;;;;;;14.79;34.23;100403.25;5067336;28;20048;-75
2021/05/02 10:24:38;;;;;;;3.90;2.07;;;;;;;15.51;32.88;100400.13;5072043;28;20685;-74
2021/05/02 10:27:08;;;;;;;4.03;2.80;;;;;;;17.39;28.49;100388.47;5073394;28;20468;-74
2021/05/02 10:29:39;;;;;;;4.30;2.35;;;;;;;21.66;22.71;100381.69;5073672;28;20477;-74
2021/05/02 10:32:08;;;;;;;3.70;2.58;;;;;;;25.28;19.88;100380.44;5075419;28;20060;-75
2021/05/02 10:34:36;;;;;;;2.92;1.83;;;;;;;26.91;17.27;100369.88;5075310;28;20060;-75
2021/05/02 10:37:33;;;;;;;3.13;1.90;;;;;;;25.20;17.91;100374.00;5075514;28;20140;-75
2021/05/02 10:40:03;;;;;;;3.58;1.73;;;;;;;24.06;18.69;100373.19;5075198;28;20057;-75
2021/05/02 10:42:50;;;;;;;3.47;1.80;;;;;;;22.77;19.94;100383.59;5074681;28;20051;-74
2021/05/02 10:45:42;;;;;;;3.20;1.77;;;;;;;21.44;21.01;100380.72;5075658;28;20059;-75
2021/05/02 10:48:25;;;;;;;3.13;2.08;;;;;;;20.41;22.83;100386.78;5075560;28;20162;-74
2021/05/02 10:50:54;;;;;;;3.55;2.10;;;;;;;19.39;24.31;100390.44;5063039;28;20256;-74
2021/05/02 10:53:24;;;;;;;2.60;1.67;;;;;;;18.63;25.55;100400.25;5075750;28;20485;-74
2021/05/02 10:55:59;;;;;;;2.88;1.95;;;;;;;18.15;26.55;100408.06;5075378;28;20052;-73
2021/05/02 10:58:28;;;;;;;2.55;1.95;;;;;;;18.11;27.44;100404.34;5075480;28;20052;-73
2021/05/02 11:00:57;;;;;;;5.13;1.88;;;;;;;18.03;27.56;100408.16;5075877;28;20052;-75
2021/05/02 11:03:52;;;;;;;4.63;2.13;;;;;;;17.74;27.43;100410.25;5076262;28;20053;-75
2021/05/02 11:06:55;;;;;;;4.72;1.85;;;;;;;17.24;28.46;100400.56;5075944;28;20068;-75
2021/05/02 11:09:29;;;;;;;3.28;1.80;;;;;;;16.77;28.36;100410.47;5076468;28;20049;-74
2021/05/02 11:11:58;;;;;;;2.90;2.15;;;;;;;16.21;28.82;100416.88;5077566;28;20516;-74
2021/05/02 11:14:33;;;;;;;3.58;1.83;;;;;;;15.78;29.39;100420.31;5077887;28;20052;-74
2021/05/02 11:17:30;;;;;;;3.72;2.08;;;;;;;15.47;30.12;100418.84;5077384;28;20056;-74
2021/05/02 11:20:00;;;;;;;4.00;1.80;;;;;;;15.18;31.18;100420.69;5077802;28;20063;-74
2021/05/02 11:22:28;;;;;;;3.45;1.90;;;;;;;15.00;31.70;100422.03;5077024;28;20056;-74
2021/05/02 11:25:07;;;;;;;4.80;1.77;;;;;;;14.72;32.42;100433.00;5077020;28;20056;-74
2021/05/02 11:27:55;;;;;;;5.00;2.22;;;;;;;14.51;32.18;100442.22;5077324;28;20075;-74
2021/05/02 11:30:26;;;;;;;4.35;1.70;;;;;;;14.23;32.74;100441.09;5077638;28;20063;-74
2021/05/02 11:32:56;;;;;;;3.90;1.90;;;;;;;14.00;33.12;100444.19;5076679;28;20497;-73
2021/05/02 11:35:53;;;;;;;5.63;2.08;;;;;;;13.91;33.71;100447.06;5077722;28;20079;-74